sensor_id;sensor_type;location;lat;lon;timestamp;pressure;altitude;pressure_sealevel;temperature;humidity
6349;BME280;3207;42.648;23.406;2022-08-04T00:00:01;100058.56;;;26.06;54.34
6349;BME280;3207;42.648;23.406;2022-08-04T00:05:28;99946.41;;;25.38;54.04
6349;BME280;3207;42.648;23.406;2022-08-04T00:08:04;100060.59;;;26.10;54.16
6349;BME280;3207;42.648;23.406;2022-08-04T00:10:32;100061.19;;;26.12;54.43
6349;BME280;3207;42.648;23.406;2022-08-04T00:13:01;100058.53;;;26.12;54.27
6349;BME280;3207;42.648;23.406;2022-08-04T00:15:31;100066.16;;;26.15;54.13
6349;BME280;3207;42.648;23.406;2022-08-04T00:18:03;100058.69;;;26.17;54.64
6349;BME280;3207;42.648;23.406;2022-08-04T00:20:32;100063.03;;;26.18;54.62
6349;BME280;3207;42.648;23.406;2022-08-04T00:23:00;100061.16;;;26.19;54.76
6349;BME280;3207;42.648;23.406;2022-08-04T00:25:27;100057.47;;;26.20;54.99
6349;BME280;3207;42.648;23.406;2022-08-04T00:27:54;100057.25;;;26.21;54.52
6349;BME280;3207;42.648;23.406;2022-08-04T00:30:21;100055.41;;;26.22;54.55
6349;BME280;3207;42.648;23.406;2022-08-04T00:32:48;100059.13;;;26.08;54.97
6349;BME280;3207;42.648;23.406;2022-08-04T00:35:16;100061.81;;;26.14;54.80
6349;BME280;3207;42.648;23.406;2022-08-04T00:37:43;100065.31;;;26.15;55.06
6349;BME280;3207;42.648;23.406;2022-08-04T00:40:20;100063.22;;;26.17;54.90
6349;BME280;3207;42.648;23.406;2022-08-04T00:42:53;100058.09;;;26.15;54.49
6349;BME280;3207;42.648;23.406;2022-08-04T00:45:53;100053.78;;;26.14;53.95
6349;BME280;3207;42.648;23.406;2022-08-04T00:48:32;100065.13;;;26.10;54.63
6349;BME280;3207;42.648;23.406;2022-08-04T00:51:10;100068.22;;;26.07;54.76
6349;BME280;3207;42.648;23.406;2022-08-04T00:53:52;100065.16;;;26.03;54.82
6349;BME280;3207;42.648;23.406;2022-08-04T00:56:38;100071.13;;;25.99;54.72
6349;BME280;3207;42.648;23.406;2022-08-04T00:59:16;100071.78;;;25.94;55.22
6349;BME280;3207;42.648;23.406;2022-08-04T01:01:58;100065.38;;;25.88;55.90
6349;BME280;3207;42.648;23.406;2022-08-04T01:04:36;100066.03;;;25.84;55.97
6349;BME280;3207;42.648;23.406;2022-08-04T01:07:16;100070.13;;;25.80;56.46
6349;BME280;3207;42.648;23.406;2022-08-04T01:09:59;100067.88;;;25.77;56.19
6349;BME280;3207;42.648;23.406;2022-08-04T01:12:50;100072.84;;;25.73;57.00
6349;BME280;3207;42.648;23.406;2022-08-04T01:15:24;100068.31;;;25.74;56.62
6349;BME280;3207;42.648;23.406;2022-08-04T01:18:02;100077.38;;;25.73;57.40
6349;BME280;3207;42.648;23.406;2022-08-04T01:20:32;100071.59;;;25.76;58.59
6349;BME280;3207;42.648;23.406;2022-08-04T01:26:16;100064.38;;;25.70;59.37
6349;BME280;3207;42.648;23.406;2022-08-04T01:29:02;100068.09;;;25.69;58.71
6349;BME280;3207;42.648;23.406;2022-08-04T01:31:34;100059.25;;;25.68;58.56
6349;BME280;3207;42.648;23.406;2022-08-04T01:34:05;100063.78;;;25.68;57.52
6349;BME280;3207;42.648;23.406;2022-08-04T01:36:33;100062.97;;;25.61;56.85
6349;BME280;3207;42.648;23.406;2022-08-04T01:39:01;100057.59;;;25.41;58.40
6349;BME280;3207;42.648;23.406;2022-08-04T01:41:51;100061.91;;;25.22;58.70
6349;BME280;3207;42.648;23.406;2022-08-04T01:44:20;100059.22;;;25.15;58.53
6349;BME280;3207;42.648;23.406;2022-08-04T01:46:49;100053.47;;;25.19;59.05
6349;BME280;3207;42.648;23.406;2022-08-04T01:49:16;100069.53;;;25.32;59.23
6349;BME280;3207;42.648;23.406;2022-08-04T01:51:45;100052.66;;;25.31;59.28
6349;BME280;3207;42.648;23.406;2022-08-04T01:54:15;100058.81;;;25.38;59.37
6349;BME280;3207;42.648;23.406;2022-08-04T01:56:43;100054.72;;;25.42;57.90
6349;BME280;3207;42.648;23.406;2022-08-04T01:59:12;100061.69;;;25.43;59.30
6349;BME280;3207;42.648;23.406;2022-08-04T02:01:42;100055.09;;;25.46;58.49
6349;BME280;3207;42.648;23.406;2022-08-04T02:04:12;100058.81;;;25.45;58.86
6349;BME280;3207;42.648;23.406;2022-08-04T02:06:48;100060.66;;;25.44;58.75
6349;BME280;3207;42.648;23.406;2022-08-04T02:09:21;100057.97;;;25.44;58.64
6349;BME280;3207;42.648;23.406;2022-08-04T02:11:59;100059.63;;;25.45;58.61
6349;BME280;3207;42.648;23.406;2022-08-04T02:14:29;100062.50;;;25.44;58.96
6349;BME280;3207;42.648;23.406;2022-08-04T02:17:12;100054.72;;;25.42;58.42
6349;BME280;3207;42.648;23.406;2022-08-04T02:19:51;100059.44;;;25.40;58.53
6349;BME280;3207;42.648;23.406;2022-08-04T02:22:21;100053.47;;;25.38;58.83
6349;BME280;3207;42.648;23.406;2022-08-04T02:24:57;100062.31;;;25.39;58.75
6349;BME280;3207;42.648;23.406;2022-08-04T02:27:30;100054.50;;;25.37;58.35
6349;BME280;3207;42.648;23.406;2022-08-04T02:29:58;100056.56;;;25.35;59.98
6349;BME280;3207;42.648;23.406;2022-08-04T02:32:32;100055.53;;;25.36;59.16
6349;BME280;3207;42.648;23.406;2022-08-04T02:35:06;100054.06;;;25.34;59.26
6349;BME280;3207;42.648;23.406;2022-08-04T02:37:34;100060.47;;;25.33;58.70
6349;BME280;3207;42.648;23.406;2022-08-04T02:40:02;100060.06;;;25.29;58.65
6349;BME280;3207;42.648;23.406;2022-08-04T02:42:31;100061.69;;;25.24;58.85
6349;BME280;3207;42.648;23.406;2022-08-04T02:44:59;100055.94;;;25.20;58.52
6349;BME280;3207;42.648;23.406;2022-08-04T02:47:28;100053.47;;;25.19;58.94
6349;BME280;3207;42.648;23.406;2022-08-04T02:49:57;100058.00;;;25.18;59.23
6349;BME280;3207;42.648;23.406;2022-08-04T02:52:24;100060.69;;;25.18;58.86
6349;BME280;3207;42.648;23.406;2022-08-04T02:54:53;100061.06;;;25.15;59.17
6349;BME280;3207;42.648;23.406;2022-08-04T02:57:23;100048.72;;;25.14;59.33
6349;BME280;3207;42.648;23.406;2022-08-04T03:00:04;100042.34;;;25.08;59.54
6349;BME280;3207;42.648;23.406;2022-08-04T03:02:44;100054.28;;;25.12;60.40
6349;BME280;3207;42.648;23.406;2022-08-04T03:05:17;100038.22;;;25.06;59.85
6349;BME280;3207;42.648;23.406;2022-08-04T03:07:58;100051.00;;;25.10;60.58
6349;BME280;3207;42.648;23.406;2022-08-04T03:11:04;100050.59;;;25.07;59.89
6349;BME280;3207;42.648;23.406;2022-08-04T03:14:11;100048.94;;;25.06;60.46
6349;BME280;3207;42.648;23.406;2022-08-04T03:17:06;100040.91;;;24.99;60.47
6349;BME280;3207;42.648;23.406;2022-08-04T03:23:06;100055.91;;;24.94;61.23
6349;BME280;3207;42.648;23.406;2022-08-04T03:26:07;100045.56;;;24.91;60.65
6349;BME280;3207;42.648;23.406;2022-08-04T03:29:00;100047.66;;;24.89;60.79
6349;BME280;3207;42.648;23.406;2022-08-04T03:32:00;100053.81;;;24.89;60.66
6349;BME280;3207;42.648;23.406;2022-08-04T03:34:50;100058.34;;;24.89;61.04
6349;BME280;3207;42.648;23.406;2022-08-04T03:37:42;100056.06;;;24.86;61.26
6349;BME280;3207;42.648;23.406;2022-08-04T03:40:33;100048.88;;;24.86;60.97
6349;BME280;3207;42.648;23.406;2022-08-04T03:43:29;100046.41;;;24.85;60.52
6349;BME280;3207;42.648;23.406;2022-08-04T03:46:30;100047.22;;;24.78;61.04
6349;BME280;3207;42.648;23.406;2022-08-04T03:49:38;100041.88;;;24.78;61.68
6349;BME280;3207;42.648;23.406;2022-08-04T03:52:12;100047.22;;;24.78;60.44
6349;BME280;3207;42.648;23.406;2022-08-04T03:55:19;100051.50;;;24.79;61.20
6349;BME280;3207;42.648;23.406;2022-08-04T03:58:03;100038.97;;;24.80;60.82
6349;BME280;3207;42.648;23.406;2022-08-04T04:00:39;100034.44;;;24.74;60.45
6349;BME280;3207;42.648;23.406;2022-08-04T04:06:36;100053.16;;;24.80;59.88
6349;BME280;3207;42.648;23.406;2022-08-04T04:09:22;100041.88;;;24.78;60.95
6349;BME280;3207;42.648;23.406;2022-08-04T04:15:02;100047.03;;;24.87;61.18
6349;BME280;3207;42.648;23.406;2022-08-04T04:20:56;100040.06;;;24.92;60.78
6349;BME280;3207;42.648;23.406;2022-08-04T04:23:31;100045.84;;;24.96;60.27
6349;BME280;3207;42.648;23.406;2022-08-04T04:26:28;100043.34;;;25.01;60.30
6349;BME280;3207;42.648;23.406;2022-08-04T04:29:10;100045.63;;;25.04;60.03
6349;BME280;3207;42.648;23.406;2022-08-04T04:31:53;100044.41;;;25.00;60.38
6349;BME280;3207;42.648;23.406;2022-08-04T04:34:46;99992.44;;;24.55;60.90
6349;BME280;3207;42.648;23.406;2022-08-04T04:37:19;100046.84;;;24.95;60.90
6349;BME280;3207;42.648;23.406;2022-08-04T04:40:02;100053.84;;;24.96;61.03
6349;BME280;3207;42.648;23.406;2022-08-04T04:42:41;100056.34;;;24.97;60.89
6349;BME280;3207;42.648;23.406;2022-08-04T04:45:21;100058.19;;;24.97;60.56
6349;BME280;3207;42.648;23.406;2022-08-04T04:47:55;100048.66;;;24.88;61.37
6349;BME280;3207;42.648;23.406;2022-08-04T04:50:30;100051.19;;;24.96;61.09
6349;BME280;3207;42.648;23.406;2022-08-04T04:53:05;100065.38;;;24.96;61.05
6349;BME280;3207;42.648;23.406;2022-08-04T04:55:39;100059.22;;;24.96;61.31
6349;BME280;3207;42.648;23.406;2022-08-04T04:58:10;100061.88;;;24.96;61.39
6349;BME280;3207;42.648;23.406;2022-08-04T05:01:03;100075.69;;;24.99;61.30
6349;BME280;3207;42.648;23.406;2022-08-04T05:03:47;100074.44;;;25.02;61.51
6349;BME280;3207;42.648;23.406;2022-08-04T05:06:32;100070.34;;;25.06;61.58
6349;BME280;3207;42.648;23.406;2022-08-04T05:09:14;100064.59;;;25.09;60.55
6349;BME280;3207;42.648;23.406;2022-08-04T05:12:09;100070.53;;;25.11;60.98
6349;BME280;3207;42.648;23.406;2022-08-04T05:14:43;100073.81;;;25.13;60.90
6349;BME280;3207;42.648;23.406;2022-08-04T05:17:16;100079.41;;;25.18;61.34
6349;BME280;3207;42.648;23.406;2022-08-04T05:19:52;100076.53;;;25.20;62.01
6349;BME280;3207;42.648;23.406;2022-08-04T05:22:24;100081.06;;;25.26;61.87
6349;BME280;3207;42.648;23.406;2022-08-04T05:25:01;100082.91;;;25.25;60.75
6349;BME280;3207;42.648;23.406;2022-08-04T05:27:31;100079.81;;;25.28;61.31
6349;BME280;3207;42.648;23.406;2022-08-04T05:30:03;100079.00;;;25.34;61.45
6349;BME280;3207;42.648;23.406;2022-08-04T05:32:39;100078.38;;;25.39;62.18
6349;BME280;3207;42.648;23.406;2022-08-04T05:35:10;100084.75;;;25.44;62.17
6349;BME280;3207;42.648;23.406;2022-08-04T05:37:40;100079.41;;;25.51;61.26
6349;BME280;3207;42.648;23.406;2022-08-04T05:40:10;100081.88;;;25.59;61.58
6349;BME280;3207;42.648;23.406;2022-08-04T05:42:39;100083.53;;;25.67;61.42
6349;BME280;3207;42.648;23.406;2022-08-04T05:45:07;100075.28;;;25.75;60.52
6349;BME280;3207;42.648;23.406;2022-08-04T05:47:36;100070.34;;;25.78;60.42
6349;BME280;3207;42.648;23.406;2022-08-04T05:50:05;100081.88;;;25.92;60.41
6349;BME280;3207;42.648;23.406;2022-08-04T05:52:33;100082.66;;;25.99;60.18
6349;BME280;3207;42.648;23.406;2022-08-04T05:55:02;100078.72;;;26.08;59.89
6349;BME280;3207;42.648;23.406;2022-08-04T05:57:29;100078.72;;;26.15;59.37
6349;BME280;3207;42.648;23.406;2022-08-04T05:59:58;100087.13;;;26.32;59.42
6349;BME280;3207;42.648;23.406;2022-08-04T06:02:28;100090.59;;;26.39;58.80
6349;BME280;3207;42.648;23.406;2022-08-04T06:04:58;100092.25;;;26.40;58.58
6349;BME280;3207;42.648;23.406;2022-08-04T06:07:26;100089.78;;;26.45;58.91
6349;BME280;3207;42.648;23.406;2022-08-04T06:09:52;100087.88;;;26.52;58.46
6349;BME280;3207;42.648;23.406;2022-08-04T06:12:21;100092.78;;;26.68;57.55
6349;BME280;3207;42.648;23.406;2022-08-04T06:14:49;100100.72;;;26.81;56.17
6349;BME280;3207;42.648;23.406;2022-08-04T06:17:22;100090.19;;;26.86;55.71
6349;BME280;3207;42.648;23.406;2022-08-04T06:19:51;100098.19;;;27.00;56.47
6349;BME280;3207;42.648;23.406;2022-08-04T06:22:21;100097.75;;;27.03;56.73
6349;BME280;3207;42.648;23.406;2022-08-04T06:24:49;100099.16;;;27.12;55.62
6349;BME280;3207;42.648;23.406;2022-08-04T06:27:17;100094.56;;;27.19;55.04
6349;BME280;3207;42.648;23.406;2022-08-04T06:29:45;100078.66;;;27.17;54.08
6349;BME280;3207;42.648;23.406;2022-08-04T06:32:15;100095.63;;;27.43;53.62
6349;BME280;3207;42.648;23.406;2022-08-04T06:34:54;100093.03;;;27.54;53.54
6349;BME280;3207;42.648;23.406;2022-08-04T06:37:24;100091.75;;;27.63;53.62
6349;BME280;3207;42.648;23.406;2022-08-04T06:39:51;100095.72;;;27.79;52.69
6349;BME280;3207;42.648;23.406;2022-08-04T06:42:21;100103.00;;;27.97;51.65
6349;BME280;3207;42.648;23.406;2022-08-04T06:44:51;100096.44;;;28.11;50.53
6349;BME280;3207;42.648;23.406;2022-08-04T06:47:20;100096.16;;;28.19;49.68
6349;BME280;3207;42.648;23.406;2022-08-04T06:49:49;100103.19;;;28.38;48.85
6349;BME280;3207;42.648;23.406;2022-08-04T06:52:18;100099.59;;;28.45;46.22
6349;BME280;3207;42.648;23.406;2022-08-04T06:54:48;100107.63;;;28.63;45.26
6349;BME280;3207;42.648;23.406;2022-08-04T06:57:17;100100.16;;;28.65;43.43
6349;BME280;3207;42.648;23.406;2022-08-04T06:59:46;100100.28;;;28.88;43.24
6349;BME280;3207;42.648;23.406;2022-08-04T07:02:17;100105.16;;;29.09;42.73
6349;BME280;3207;42.648;23.406;2022-08-04T07:04:45;100111.16;;;29.35;43.17
6349;BME280;3207;42.648;23.406;2022-08-04T07:07:12;100103.06;;;29.53;43.20
6349;BME280;3207;42.648;23.406;2022-08-04T07:09:39;100102.47;;;29.74;42.65
6349;BME280;3207;42.648;23.406;2022-08-04T07:12:08;100091.78;;;29.79;41.16
6349;BME280;3207;42.648;23.406;2022-08-04T07:14:35;100097.34;;;29.96;40.33
6349;BME280;3207;42.648;23.406;2022-08-04T07:17:02;100100.97;;;30.02;39.07
6349;BME280;3207;42.648;23.406;2022-08-04T07:19:30;100101.41;;;30.22;38.51
6349;BME280;3207;42.648;23.406;2022-08-04T07:21:57;100103.25;;;30.33;38.66
6349;BME280;3207;42.648;23.406;2022-08-04T07:24:29;100093.84;;;30.47;38.45
6349;BME280;3207;42.648;23.406;2022-08-04T07:26:55;100105.53;;;30.65;35.93
6349;BME280;3207;42.648;23.406;2022-08-04T07:29:23;100108.06;;;30.83;35.12
6349;BME280;3207;42.648;23.406;2022-08-04T07:31:50;100095.28;;;30.95;33.87
6349;BME280;3207;42.648;23.406;2022-08-04T07:34:18;100108.16;;;31.05;33.90
6349;BME280;3207;42.648;23.406;2022-08-04T07:36:45;100094.44;;;30.78;33.86
6349;BME280;3207;42.648;23.406;2022-08-04T07:39:12;100041.50;;;30.48;33.89
6349;BME280;3207;42.648;23.406;2022-08-04T07:41:40;100095.63;;;30.82;33.15
6349;BME280;3207;42.648;23.406;2022-08-04T07:44:08;100101.53;;;30.96;33.64
6349;BME280;3207;42.648;23.406;2022-08-04T07:46:36;100102.50;;;31.18;32.84
6349;BME280;3207;42.648;23.406;2022-08-04T07:49:04;100096.19;;;31.12;31.01
6349;BME280;3207;42.648;23.406;2022-08-04T07:51:31;100101.84;;;31.27;33.15
6349;BME280;3207;42.648;23.406;2022-08-04T07:53:59;100106.94;;;31.41;33.85
6349;BME280;3207;42.648;23.406;2022-08-04T07:56:27;100098.66;;;31.31;33.29
6349;BME280;3207;42.648;23.406;2022-08-04T07:58:54;100099.16;;;31.44;33.00
6349;BME280;3207;42.648;23.406;2022-08-04T08:01:21;100098.84;;;31.74;32.28
6349;BME280;3207;42.648;23.406;2022-08-04T08:03:52;100097.53;;;31.77;31.89
6349;BME280;3207;42.648;23.406;2022-08-04T08:06:19;100094.03;;;31.98;31.87
6349;BME280;3207;42.648;23.406;2022-08-04T08:08:46;100106.38;;;32.11;31.12
6349;BME280;3207;42.648;23.406;2022-08-04T08:11:13;100101.31;;;32.36;31.23
6349;BME280;3207;42.648;23.406;2022-08-04T08:13:39;100094.63;;;32.22;31.88
6349;BME280;3207;42.648;23.406;2022-08-04T08:16:08;100101.69;;;32.23;31.58
6349;BME280;3207;42.648;23.406;2022-08-04T08:18:34;100100.75;;;32.34;31.78
6349;BME280;3207;42.648;23.406;2022-08-04T08:21:02;100107.69;;;32.47;31.36
6349;BME280;3207;42.648;23.406;2022-08-04T08:23:34;100101.31;;;32.36;30.87
6349;BME280;3207;42.648;23.406;2022-08-04T08:26:01;100102.97;;;32.37;30.81
6349;BME280;3207;42.648;23.406;2022-08-04T08:28:28;100102.25;;;32.68;30.10
6349;BME280;3207;42.648;23.406;2022-08-04T08:30:54;100100.00;;;32.82;29.58
6349;BME280;3207;42.648;23.406;2022-08-04T08:33:21;100101.16;;;32.91;29.44
6349;BME280;3207;42.648;23.406;2022-08-04T08:35:51;100094.88;;;33.13;29.19
6349;BME280;3207;42.648;23.406;2022-08-04T08:38:32;100096.66;;;33.29;28.38
6349;BME280;3207;42.648;23.406;2022-08-04T08:44:07;100100.69;;;32.99;27.54
6349;BME280;3207;42.648;23.406;2022-08-04T08:46:46;100097.91;;;33.21;27.45
6349;BME280;3207;42.648;23.406;2022-08-04T08:52:25;100091.09;;;33.46;27.21
6349;BME280;3207;42.648;23.406;2022-08-04T08:55:12;100094.88;;;33.76;27.89
6349;BME280;3207;42.648;23.406;2022-08-04T08:58:00;100092.41;;;33.75;28.31
6349;BME280;3207;42.648;23.406;2022-08-04T09:00:39;100097.38;;;33.51;27.85
6349;BME280;3207;42.648;23.406;2022-08-04T09:03:21;100094.72;;;33.61;28.24
6349;BME280;3207;42.648;23.406;2022-08-04T09:12:24;100086.63;;;34.08;27.70
6349;BME280;3207;42.648;23.406;2022-08-04T09:15:02;100083.38;;;34.06;27.32
6349;BME280;3207;42.648;23.406;2022-08-04T09:17:34;100083.97;;;34.24;27.73
6349;BME280;3207;42.648;23.406;2022-08-04T09:20:07;100085.56;;;34.09;27.21
6349;BME280;3207;42.648;23.406;2022-08-04T09:22:41;100085.88;;;34.18;26.47
6349;BME280;3207;42.648;23.406;2022-08-04T09:25:12;100087.41;;;34.61;25.81
6349;BME280;3207;42.648;23.406;2022-08-04T09:27:50;100089.63;;;34.74;26.16
6349;BME280;3207;42.648;23.406;2022-08-04T09:30:20;100096.09;;;34.58;26.09
6349;BME280;3207;42.648;23.406;2022-08-04T09:32:56;100091.44;;;34.48;26.13
6349;BME280;3207;42.648;23.406;2022-08-04T09:35:32;100082.19;;;34.39;26.55
6349;BME280;3207;42.648;23.406;2022-08-04T09:38:08;100095.00;;;34.59;26.56
6349;BME280;3207;42.648;23.406;2022-08-04T09:40:40;100090.75;;;34.94;25.99
6349;BME280;3207;42.648;23.406;2022-08-04T09:43:22;100102.22;;;35.16;25.39
6349;BME280;3207;42.648;23.406;2022-08-04T09:45:59;100083.06;;;34.70;26.51
6349;BME280;3207;42.648;23.406;2022-08-04T09:48:33;100079.84;;;34.78;26.48
6349;BME280;3207;42.648;23.406;2022-08-04T09:51:09;100084.78;;;35.02;25.41
6349;BME280;3207;42.648;23.406;2022-08-04T09:53:54;100089.13;;;35.08;25.37
6349;BME280;3207;42.648;23.406;2022-08-04T09:56:27;100093.22;;;35.20;25.57
6349;BME280;3207;42.648;23.406;2022-08-04T09:59:03;100079.91;;;35.14;25.62
6349;BME280;3207;42.648;23.406;2022-08-04T10:01:34;100077.19;;;35.44;25.28
6349;BME280;3207;42.648;23.406;2022-08-04T10:04:08;100070.38;;;35.21;25.92
6349;BME280;3207;42.648;23.406;2022-08-04T10:07:03;100068.47;;;35.63;25.50
6349;BME280;3207;42.648;23.406;2022-08-04T10:09:51;100071.13;;;35.93;24.99
6349;BME280;3207;42.648;23.406;2022-08-04T10:12:32;100067.38;;;35.79;24.99
6349;BME280;3207;42.648;23.406;2022-08-04T10:15:09;100063.00;;;35.83;25.56
6349;BME280;3207;42.648;23.406;2022-08-04T10:17:50;100060.28;;;35.83;25.72
6349;BME280;3207;42.648;23.406;2022-08-04T10:20:36;100050.41;;;36.12;24.76
6349;BME280;3207;42.648;23.406;2022-08-04T10:23:11;100048.75;;;36.06;24.83
6349;BME280;3207;42.648;23.406;2022-08-04T10:25:51;100045.78;;;36.03;25.19
6349;BME280;3207;42.648;23.406;2022-08-04T10:28:23;100048.88;;;36.45;24.43
6349;BME280;3207;42.648;23.406;2022-08-04T10:30:56;100049.78;;;36.30;24.59
6349;BME280;3207;42.648;23.406;2022-08-04T10:33:27;100047.00;;;36.41;23.67
6349;BME280;3207;42.648;23.406;2022-08-04T10:36:00;100043.25;;;36.32;23.94
6349;BME280;3207;42.648;23.406;2022-08-04T10:38:30;100037.19;;;36.40;23.83
6349;BME280;3207;42.648;23.406;2022-08-04T10:41:00;100025.09;;;36.61;23.63
6349;BME280;3207;42.648;23.406;2022-08-04T10:43:40;100043.31;;;36.21;24.04
6349;BME280;3207;42.648;23.406;2022-08-04T10:46:13;100033.91;;;35.68;24.30
6349;BME280;3207;42.648;23.406;2022-08-04T10:48:46;100020.88;;;35.55;24.54
6349;BME280;3207;42.648;23.406;2022-08-04T10:51:20;100035.69;;;36.03;24.00
6349;BME280;3207;42.648;23.406;2022-08-04T10:53:52;100032.41;;;36.11;23.90
6349;BME280;3207;42.648;23.406;2022-08-04T10:56:28;100028.59;;;36.22;24.27
6349;BME280;3207;42.648;23.406;2022-08-04T10:58:59;100033.56;;;36.00;24.13
6349;BME280;3207;42.648;23.406;2022-08-04T11:01:32;100028.41;;;35.93;24.22
6349;BME280;3207;42.648;23.406;2022-08-04T11:04:04;100021.59;;;36.01;24.50
6349;BME280;3207;42.648;23.406;2022-08-04T11:06:34;100023.72;;;36.09;24.12
6349;BME280;3207;42.648;23.406;2022-08-04T11:09:02;100006.34;;;35.95;24.22
6349;BME280;3207;42.648;23.406;2022-08-04T11:11:32;100018.91;;;35.91;24.18
6349;BME280;3207;42.648;23.406;2022-08-04T11:14:02;100018.31;;;35.99;24.31
6349;BME280;3207;42.648;23.406;2022-08-04T11:16:37;100024.88;;;36.47;23.86
6349;BME280;3207;42.648;23.406;2022-08-04T11:19:16;100027.41;;;36.83;23.65
6349;BME280;3207;42.648;23.406;2022-08-04T11:21:48;100003.22;;;36.76;23.54
6349;BME280;3207;42.648;23.406;2022-08-04T11:24:23;100017.47;;;37.31;22.75
6349;BME280;3207;42.648;23.406;2022-08-04T11:26:59;100010.59;;;37.62;22.03
6349;BME280;3207;42.648;23.406;2022-08-04T11:29:32;100016.41;;;37.56;21.93
6349;BME280;3207;42.648;23.406;2022-08-04T11:32:07;100016.22;;;37.47;22.45
6349;BME280;3207;42.648;23.406;2022-08-04T11:34:37;100015.13;;;37.48;22.13
6349;BME280;3207;42.648;23.406;2022-08-04T11:37:12;100008.91;;;37.09;23.07
6349;BME280;3207;42.648;23.406;2022-08-04T11:39:42;100001.97;;;37.26;22.77
6349;BME280;3207;42.648;23.406;2022-08-04T11:42:15;100003.09;;;37.20;22.56
6349;BME280;3207;42.648;23.406;2022-08-04T11:44:48;99992.19;;;37.49;22.34
6349;BME280;3207;42.648;23.406;2022-08-04T11:47:26;100002.09;;;37.40;22.43
6349;BME280;3207;42.648;23.406;2022-08-04T11:50:01;99995.31;;;37.37;22.81
6349;BME280;3207;42.648;23.406;2022-08-04T11:52:31;99993.38;;;37.91;22.37
6349;BME280;3207;42.648;23.406;2022-08-04T11:55:03;99996.72;;;38.25;21.64
6349;BME280;3207;42.648;23.406;2022-08-04T11:57:31;100010.19;;;38.22;21.74
6349;BME280;3207;42.648;23.406;2022-08-04T11:59:59;100001.94;;;38.03;21.93
6349;BME280;3207;42.648;23.406;2022-08-04T12:02:46;99991.84;;;37.56;22.54
6349;BME280;3207;42.648;23.406;2022-08-04T12:05:19;99995.38;;;37.56;22.87
6349;BME280;3207;42.648;23.406;2022-08-04T12:07:54;99991.50;;;37.62;22.90
6349;BME280;3207;42.648;23.406;2022-08-04T12:10:36;99988.34;;;37.98;22.22
6349;BME280;3207;42.648;23.406;2022-08-04T12:13:12;99982.88;;;37.98;21.78
6349;BME280;3207;42.648;23.406;2022-08-04T12:15:50;99981.69;;;38.04;21.66
6349;BME280;3207;42.648;23.406;2022-08-04T12:18:22;99977.53;;;38.12;21.59
6349;BME280;3207;42.648;23.406;2022-08-04T12:20:56;99961.03;;;37.79;21.76
6349;BME280;3207;42.648;23.406;2022-08-04T12:23:30;99969.31;;;37.93;21.90
6349;BME280;3207;42.648;23.406;2022-08-04T12:26:02;99969.53;;;37.96;22.09
6349;BME280;3207;42.648;23.406;2022-08-04T12:28:33;99955.81;;;38.39;21.86
6349;BME280;3207;42.648;23.406;2022-08-04T12:31:04;99961.34;;;38.15;21.71
6349;BME280;3207;42.648;23.406;2022-08-04T12:33:40;99952.28;;;38.57;21.37
6349;BME280;3207;42.648;23.406;2022-08-04T12:36:20;99959.25;;;38.82;20.93
6349;BME280;3207;42.648;23.406;2022-08-04T12:38:51;99955.00;;;38.57;21.05
6349;BME280;3207;42.648;23.406;2022-08-04T12:41:26;99948.59;;;38.11;21.51
6349;BME280;3207;42.648;23.406;2022-08-04T12:44:03;99952.72;;;38.08;21.33
6349;BME280;3207;42.648;23.406;2022-08-04T12:46:31;99941.84;;;37.60;22.18
6349;BME280;3207;42.648;23.406;2022-08-04T12:49:02;99955.88;;;37.96;21.98
6349;BME280;3207;42.648;23.406;2022-08-04T12:51:36;99942.19;;;37.54;22.08
6349;BME280;3207;42.648;23.406;2022-08-04T12:54:03;99944.09;;;37.53;22.02
6349;BME280;3207;42.648;23.406;2022-08-04T12:56:30;99946.63;;;37.50;22.09
6349;BME280;3207;42.648;23.406;2022-08-04T12:59:01;99938.75;;;37.43;22.50
6349;BME280;3207;42.648;23.406;2022-08-04T13:01:29;99944.59;;;37.60;21.93
6349;BME280;3207;42.648;23.406;2022-08-04T13:03:58;99931.47;;;37.62;22.04
6349;BME280;3207;42.648;23.406;2022-08-04T13:06:30;99943.88;;;37.73;22.20
6349;BME280;3207;42.648;23.406;2022-08-04T13:09:02;99939.59;;;38.10;21.61
6349;BME280;3207;42.648;23.406;2022-08-04T13:11:33;99930.75;;;37.76;22.16
6349;BME280;3207;42.648;23.406;2022-08-04T13:14:01;99935.41;;;37.75;22.26
6349;BME280;3207;42.648;23.406;2022-08-04T13:16:29;99939.81;;;37.47;22.09
6349;BME280;3207;42.648;23.406;2022-08-04T13:18:56;99928.91;;;37.23;22.46
6349;BME280;3207;42.648;23.406;2022-08-04T13:21:26;99935.59;;;37.36;22.79
6349;BME280;3207;42.648;23.406;2022-08-04T13:24:01;99934.91;;;37.92;21.65
6349;BME280;3207;42.648;23.406;2022-08-04T13:26:30;99935.66;;;37.97;21.55
6349;BME280;3207;42.648;23.406;2022-08-04T13:29:00;99930.47;;;37.96;21.34
6349;BME280;3207;42.648;23.406;2022-08-04T13:31:28;99903.16;;;37.53;21.58
6349;BME280;3207;42.648;23.406;2022-08-04T13:34:02;99926.09;;;37.52;22.09
6349;BME280;3207;42.648;23.406;2022-08-04T13:36:32;99919.09;;;37.46;22.51
6349;BME280;3207;42.648;23.406;2022-08-04T13:39:05;99904.94;;;37.44;22.50
6349;BME280;3207;42.648;23.406;2022-08-04T13:41:34;99907.84;;;37.00;22.78
6349;BME280;3207;42.648;23.406;2022-08-04T13:44:02;99909.66;;;36.81;23.30
6349;BME280;3207;42.648;23.406;2022-08-04T13:46:38;99907.94;;;36.56;23.38
6349;BME280;3207;42.648;23.406;2022-08-04T13:49:08;99904.25;;;36.42;23.22
6349;BME280;3207;42.648;23.406;2022-08-04T13:51:35;99898.66;;;36.62;23.49
6349;BME280;3207;42.648;23.406;2022-08-04T13:54:06;99896.94;;;36.71;23.58
6349;BME280;3207;42.648;23.406;2022-08-04T13:56:35;99907.94;;;36.56;22.96
6349;BME280;3207;42.648;23.406;2022-08-04T13:59:05;99898.44;;;36.53;23.34
6349;BME280;3207;42.648;23.406;2022-08-04T14:01:34;99900.66;;;36.46;23.31
6349;BME280;3207;42.648;23.406;2022-08-04T14:04:03;99889.31;;;36.68;22.87
6349;BME280;3207;42.648;23.406;2022-08-04T14:06:43;99868.25;;;37.08;23.04
6349;BME280;3207;42.648;23.406;2022-08-04T14:09:19;99878.69;;;37.48;22.57